Time;durP1;ratioP1;P1;durP2;ratioP2;P2;SDS_P1;SDS_P2;PMS_P1;PMS_P2;Temp;Humidity;BMP_temperature;BMP_pressure;BME280_temperature;BME280_humidity;BME280_pressure;Samples;Min_cycle;Max_cycle;Signal;HPM_P1;HPM_P2
2023/04/10 00:03:32;;;;;;;40.13;26.40;;;7.20;99.90;;;;;;8323992;28;20202;-66
2023/04/10 00:07:33;;;;;;;35.30;25.13;;;7.20;99.90;;;;;;8329414;28;20200;-67
2023/04/10 00:11:34;;;;;;;35.43;25.00;;;7.20;99.90;;;;;;8322140;28;20221;-66
2023/04/10 00:15:35;;;;;;;42.23;28.77;;;7.10;99.90;;;;;;8325906;28;20178;-67
2023/04/10 00:19:37;;;;;;;43.57;29.30;;;7.10;99.90;;;;;;8321774;28;20190;-68
2023/04/10 00:23:38;;;;;;;40.07;27.33;;;7.00;99.90;;;;;;8325781;28;20186;-68
2023/04/10 00:27:40;;;;;;;36.63;25.37;;;7.00;1.00;;;;;;8328025;28;20181;-67
2023/04/10 00:31:44;;;;;;;36.07;23.63;;;7.00;1.00;;;;;;8332032;28;20201;-67
2023/04/10 00:35:56;;;;;;;37.33;25.43;;;6.90;1.00;;;;;;8327029;28;20194;-67
2023/04/10 00:39:57;;;;;;;37.93;25.13;;;6.90;54.50;;;;;;8328212;28;20327;-67
2023/04/10 00:43:59;;;;;;;36.13;24.33;;;6.90;99.90;;;;;;8328611;28;20198;-67
2023/04/10 00:47:59;;;;;;;40.27;27.20;;;6.90;99.90;;;;;;8333109;28;20197;-70
2023/04/10 00:52:01;;;;;;;37.50;26.40;;;6.80;99.90;;;;;;8326512;28;20360;-69
2023/04/10 00:56:02;;;;;;;48.33;32.83;;;6.80;99.90;;;;;;8345874;28;20317;-70
2023/04/10 01:00:04;;;;;;;44.30;30.27;;;6.70;99.90;;;;;;8331621;28;20252;-70
2023/04/10 01:04:05;;;;;;;45.30;30.30;;;6.70;1.00;;;;;;8331673;28;20202;-68
2023/04/10 01:08:23;;;;;;;43.93;30.10;;;6.60;99.70;;;;;;8329383;28;20206;-68
2023/04/10 01:12:45;;;;;;;40.83;27.87;;;6.50;99.90;;;;;;8327341;28;20186;-67
2023/04/10 01:16:57;;;;;;;38.50;28.00;;;6.40;99.90;;;;;;8322767;28;20220;-68
2023/04/10 01:21:01;;;;;;;41.50;27.30;;;6.30;1.00;;;;;;8343522;28;20197;-67
2023/04/10 01:26:06;;;;;;;38.07;25.67;;;6.20;5.30;;;;;;8326950;28;20197;-67
2023/04/10 01:30:13;;;;;;;33.80;24.77;;;6.20;99.90;;;;;;8241525;28;20303;-68
2023/04/10 01:34:18;;;;;;;36.97;25.53;;;6.30;99.90;;;;;;8290343;28;20198;-70
2023/04/10 01:38:21;;;;;;;34.73;24.87;;;6.30;1.00;;;;;;8324904;28;20197;-70
2023/04/10 01:42:23;;;;;;;37.17;24.73;;;6.40;99.90;;;;;;8322058;28;20197;-70
2023/04/10 01:46:25;;;;;;;36.10;24.93;;;6.40;1.00;;;;;;8332140;28;20186;-70
2023/04/10 01:50:33;;;;;;;34.47;24.43;;;6.40;91.30;;;;;;8320690;28;20264;-68
2023/04/10 01:54:35;;;;;;;39.33;26.30;;;6.40;99.90;;;;;;8328729;28;20190;-69
2023/04/10 01:58:45;;;;;;;38.57;25.40;;;6.40;99.90;;;;;;8327327;28;20300;-69
2023/04/10 02:02:46;;;;;;;36.67;25.63;;;6.40;1.00;;;;;;8323191;28;20190;-69
2023/04/10 02:07:03;;;;;;;34.70;24.50;;;6.40;99.90;;;;;;8328822;28;20196;-69
2023/04/10 02:11:23;;;;;;;33.20;23.50;;;6.40;99.90;;;;;;8324117;28;20304;-70
2023/04/10 02:15:31;;;;;;;34.57;24.10;;;6.40;99.90;;;;;;8340933;28;20190;-70
2023/04/10 02:19:33;;;;;;;34.37;24.30;;;6.50;20.90;;;;;;8317812;28;20186;-70
2023/04/10 02:23:35;;;;;;;29.23;22.47;;;6.50;99.90;;;;;;8336772;28;20289;-70
2023/04/10 02:27:37;;;;;;;36.63;24.67;;;6.50;99.90;;;;;;8324208;28;20197;-69
2023/04/10 02:31:39;;;;;;;36.13;25.63;;;6.50;1.00;;;;;;8327878;28;20304;-69
2023/04/10 02:35:41;;;;;;;32.40;24.73;;;6.60;99.90;;;;;;8325829;28;20195;-70
2023/04/10 02:39:42;;;;;;;40.80;26.90;;;6.50;99.90;;;;;;8326778;28;20194;-69
2023/04/10 02:43:43;;;;;;;42.40;29.50;;;6.50;99.90;;;;;;8326357;28;20194;-69
2023/04/10 02:47:44;;;;;;;43.20;29.53;;;6.60;1.00;;;;;;8325681;28;20225;-69
2023/04/10 02:51:45;;;;;;;45.30;30.23;;;6.60;93.10;;;;;;8328550;28;20216;-69
2023/04/10 02:55:46;;;;;;;54.67;36.13;;;6.60;99.90;;;;;;8328391;28;20290;-68
2023/04/10 02:59:53;;;;;;;48.07;31.47;;;6.70;99.90;;;;;;8339379;28;20283;-68
2023/04/10 03:03:54;;;;;;;46.40;31.97;;;6.70;1.00;;;;;;8325614;28;20213;-66
2023/04/10 03:07:55;;;;;;;45.33;30.53;;;6.60;1.00;;;;;;8326441;28;20193;-67
2023/04/10 03:11:56;;;;;;;55.87;37.77;;;6.70;99.90;;;;;;8326512;28;20281;-67
2023/04/10 03:15:57;;;;;;;48.80;31.40;;;6.70;99.90;;;;;;8321563;28;20224;-68
2023/04/10 03:20:07;;;;;;;43.03;29.40;;;6.70;99.90;;;;;;8326388;28;20198;-67
2023/04/10 03:24:08;;;;;;;42.83;29.20;;;6.60;1.00;;;;;;8324203;28;20190;-67
2023/04/10 03:28:09;;;;;;;38.13;27.13;;;6.60;99.90;;;;;;8330511;28;20267;-68
2023/04/10 03:32:10;;;;;;;37.07;27.13;;;6.60;1.00;;;;;;8326820;28;20213;-68
2023/04/10 03:36:11;;;;;;;37.53;26.93;;;6.60;14.30;;;;;;8329198;28;20194;-69
2023/04/10 03:40:18;;;;;;;39.23;26.40;;;6.60;1.00;;;;;;8319802;28;20193;-67
2023/04/10 03:44:21;;;;;;;33.37;24.27;;;6.60;99.90;;;;;;8342889;28;20220;-68
2023/04/10 03:48:22;;;;;;;30.73;22.80;;;6.60;1.00;;;;;;8327466;28;20201;-68
2023/04/10 03:52:22;;;;;;;33.07;24.10;;;6.60;99.90;;;;;;8325348;28;20279;-68
2023/04/10 03:56:27;;;;;;;37.37;24.63;;;6.60;1.00;;;;;;8325582;28;20214;-67
2023/04/10 04:00:28;;;;;;;35.00;24.77;;;6.60;99.90;;;;;;8327897;28;20205;-67
2023/04/10 04:04:30;;;;;;;41.87;28.13;;;6.70;99.90;;;;;;8324067;28;20201;-67
2023/04/10 04:08:31;;;;;;;39.27;27.87;;;6.70;99.90;;;;;;8332369;28;20325;-67
2023/04/10 04:12:32;;;;;;;41.27;27.50;;;6.70;99.90;;;;;;8324926;28;20279;-67
2023/04/10 04:16:32;;;;;;;38.17;27.67;;;6.80;1.00;;;;;;8328942;28;20201;-66
2023/04/10 04:20:39;;;;;;;40.50;28.23;;;6.80;99.90;;;;;;8324871;28;20261;-72
2023/04/10 04:24:40;;;;;;;36.20;24.97;;;6.80;99.90;;;;;;8329975;28;20190;-68
2023/04/10 04:28:41;;;;;;;34.23;24.80;;;6.80;24.50;;;;;;8326920;28;20214;-69
2023/04/10 04:32:43;;;;;;;32.97;23.40;;;6.70;1.00;;;;;;8321839;28;20194;-68
2023/04/10 04:36:44;;;;;;;31.83;23.00;;;6.80;99.90;;;;;;8325218;28;20225;-69
2023/04/10 04:40:45;;;;;;;30.80;22.23;;;6.80;1.00;;;;;;8322293;28;20190;-69
2023/04/10 04:44:49;;;;;;;32.70;23.70;;;6.80;1.00;;;;;;8322453;28;20214;-67
2023/04/10 04:48:50;;;;;;;31.27;23.20;;;6.90;1.00;;;;;;8323390;28;20194;-66
2023/04/10 04:52:54;;;;;;;33.23;23.20;;;7.00;99.90;;;;;;8326731;28;20192;-66
2023/04/10 04:57:04;;;;;;;33.67;24.80;;;7.10;99.90;;;;;;8327765;28;20279;-66
2023/04/10 05:01:05;;;;;;;34.43;24.77;;;7.10;1.00;;;;;;8322223;28;20197;-66
2023/04/10 05:05:09;;;;;;;36.17;24.93;;;7.30;99.90;;;;;;8326136;28;20196;-68
2023/04/10 05:09:10;;;;;;;33.67;24.40;;;7.40;99.90;;;;;;8321939;28;20371;-66
2023/04/10 05:13:11;;;;;;;30.73;24.17;;;7.50;1.00;;;;;;8323243;28;20178;-66
2023/04/10 05:17:13;;;;;;;34.60;26.03;;;7.60;99.90;;;;;;8321244;28;20210;-67
2023/04/10 05:21:17;;;;;;;27.97;23.03;;;7.70;99.90;;;;;;8322415;28;20202;-67
2023/04/10 05:25:19;;;;;;;34.90;24.57;;;7.90;99.90;;;;;;8320550;28;20218;-67
2023/04/10 05:29:22;;;;;;;32.43;23.50;;;8.00;1.00;;;;;;8323774;28;20224;-66
2023/04/10 05:33:23;;;;;;;37.20;27.30;;;8.20;99.90;;;;;;8327722;28;20241;-69
2023/04/10 05:37:24;;;;;;;32.57;24.87;;;8.40;1.00;;;;;;8324994;28;20254;-69
2023/04/10 05:41:25;;;;;;;38.00;28.03;;;8.60;75.10;;;;;;8319802;28;20192;-70
2023/04/10 05:45:29;;;;;;;33.33;25.13;;;8.60;99.90;;;;;;8314830;28;20191;-67
2023/04/10 05:49:33;;;;;;;33.60;25.03;;;8.70;99.90;;;;;;8341933;28;20211;-67
2023/04/10 05:53:34;;;;;;;29.23;22.10;;;8.90;99.90;;;;;;8327029;28;20250;-67
2023/04/10 05:57:35;;;;;;;36.97;27.23;;;9.10;99.90;;;;;;8308317;28;20230;-67
2023/04/10 06:01:36;;;;;;;33.57;25.53;;;9.40;1.00;;;;;;8317812;28;20187;-66
2023/04/10 06:05:37;;;;;;;39.20;29.50;;;9.60;99.90;;;;;;8320638;28;20189;-66
2023/04/10 06:09:38;;;;;;;39.23;31.57;;;9.80;99.90;;;;;;8320748;28;20218;-66
2023/04/10 06:13:39;;;;;;;33.53;25.60;;;9.80;1.00;;;;;;8327903;28;20178;-66
2023/04/10 06:17:43;;;;;;;33.53;26.33;;;9.80;1.00;;;;;;8320691;28;20204;-66
2023/04/10 06:21:44;;;;;;;28.03;22.73;;;9.90;1.00;;;;;;8320389;28;20190;-66
2023/04/10 06:25:45;;;;;;;30.37;25.77;;;10.10;1.00;;;;;;8318698;28;20280;-72
2023/04/10 06:29:49;;;;;;;28.83;22.80;;;10.40;99.90;;;;;;8314001;28;20272;-72
2023/04/10 06:33:59;;;;;;;30.77;24.50;;;10.70;99.90;;;;;;8322266;28;20178;-72
2023/04/10 06:38:03;;;;;;;34.67;26.57;;;11.10;99.90;;;;;;8323147;28;20232;-72
2023/04/10 06:42:13;;;;;;;42.93;31.97;;;11.40;99.90;;;;;;8330407;28;20214;-72
2023/04/10 06:46:14;;;;;;;49.80;36.07;;;11.60;99.90;;;;;;8327462;28;20302;-72
2023/04/10 06:50:16;;;;;;;61.13;35.97;;;11.70;99.90;;;;;;8328387;28;20288;-73
2023/04/10 06:54:17;;;;;;;52.83;37.27;;;11.70;99.90;;;;;;8350079;28;20178;-71
2023/04/10 06:58:18;;;;;;;30.37;23.53;;;11.70;99.90;;;;;;8359922;22;20213;-71
2023/04/10 07:02:19;;;;;;;44.43;31.03;;;11.70;99.90;;;;;;8329142;28;20174;-71
2023/04/10 07:06:20;;;;;;;29.17;22.60;;;11.80;99.90;;;;;;8329255;28;20291;-71
2023/04/10 07:10:22;;;;;;;30.50;21.90;;;12.10;99.90;;;;;;8336481;28;20202;-71
2023/04/10 07:14:23;;;;;;;26.30;20.97;;;12.30;99.90;;;;;;8335675;28;20250;-71
2023/04/10 07:18:24;;;;;;;28.13;21.60;;;12.40;99.90;;;;;;8333277;28;20183;-70
2023/04/10 07:22:31;;;;;;;25.23;20.47;;;12.60;99.90;;;;;;8333054;28;20285;-70
2023/04/10 07:26:32;;;;;;;27.10;21.47;;;12.70;99.90;;;;;;8330744;28;20201;-70
2023/04/10 07:30:42;;;;;;;28.20;21.20;;;12.50;99.90;;;;;;8330863;28;20273;-71
2023/04/10 07:34:43;;;;;;;27.10;20.23;;;12.20;99.90;;;;;;8328585;28;20281;-70
2023/04/10 07:38:44;;;;;;;27.23;21.13;;;12.30;99.90;;;;;;8334730;28;20190;-70
2023/04/10 07:42:45;;;;;;;23.03;19.67;;;12.30;99.90;;;;;;8328140;28;20216;-71
2023/04/10 07:46:46;;;;;;;25.80;19.37;;;12.30;99.90;;;;;;8325700;28;20189;-71
2023/04/10 07:50:47;;;;;;;24.30;19.30;;;12.80;99.90;;;;;;8333598;28;20239;-71
2023/04/10 07:54:48;;;;;;;26.77;19.73;;;13.30;86.20;;;;;;8331027;28;20182;-71
2023/04/10 07:58:50;;;;;;;19.60;16.33;;;14.00;55.00;;;;;;8329906;28;20209;-68
2023/04/10 08:02:55;;;;;;;24.30;19.10;;;14.40;38.00;;;;;;8324689;28;20190;-72
2023/04/10 08:06:56;;;;;;;33.60;24.47;;;14.80;19.80;;;;;;8329049;28;20190;-70
2023/04/10 08:10:57;;;;;;;21.50;17.20;;;15.50;9.60;;;;;;8325414;28;20220;-69
2023/04/10 08:15:01;;;;;;;20.17;16.10;;;15.90;1.00;;;;;;8328021;28;20194;-70
2023/04/10 08:19:02;;;;;;;26.43;17.40;;;15.90;1.00;;;;;;8321256;28;20257;-71
2023/04/10 08:23:04;;;;;;;18.93;15.20;;;15.90;1.00;;;;;;8325947;28;20186;-71
2023/04/10 08:27:06;;;;;;;19.20;15.27;;;15.90;1.00;;;;;;8331492;28;20179;-70
2023/04/10 08:31:09;;;;;;;19.20;14.70;;;15.70;1.00;;;;;;8325927;28;20218;-71
2023/04/10 08:35:10;;;;;;;16.30;13.60;;;15.50;1.00;;;;;;8322097;28;20189;-71
2023/04/10 08:39:11;;;;;;;22.93;17.73;;;15.40;1.00;;;;;;8333687;28;20242;-71
2023/04/10 08:43:12;;;;;;;21.47;15.47;;;15.30;1.00;;;;;;8333795;28;20186;-70
2023/04/10 08:47:15;;;;;;;18.87;15.00;;;15.30;1.00;;;;;;8329259;28;20187;-71
2023/04/10 08:51:19;;;;;;;22.97;18.00;;;15.30;1.00;;;;;;8327535;28;20236;-71
2023/04/10 08:55:20;;;;;;;24.67;16.40;;;15.30;1.00;;;;;;8350028;28;20177;-70
2023/04/10 08:59:22;;;;;;;19.23;15.23;;;15.20;1.00;;;;;;8334951;28;20224;-70
2023/04/10 09:03:24;;;;;;;19.50;14.80;;;15.10;1.00;;;;;;8332847;28;20189;-71
2023/04/10 09:07:28;;;;;;;20.57;16.03;;;14.70;1.00;;;;;;8330099;28;20190;-71
2023/04/10 09:12:15;;;;;;;18.50;13.40;;;14.80;1.00;;;;;;8333090;28;20213;-72
2023/04/10 09:16:16;;;;;;;16.47;12.13;;;15.40;1.00;;;;;;8282009;28;20317;-71
2023/04/10 09:20:24;;;;;;;13.13;9.47;;;16.20;1.00;;;;;;8295144;28;20301;-70
2023/04/10 09:24:25;;;;;;;11.80;9.70;;;16.70;1.00;;;;;;8325624;28;20185;-69
2023/04/10 09:28:27;;;;;;;12.37;10.63;;;17.10;1.00;;;;;;8326466;28;20274;-71
2023/04/10 09:32:45;;;;;;;12.33;9.90;;;16.90;1.00;;;;;;8330561;28;20218;-70
2023/04/10 09:37:00;;;;;;;13.57;11.50;;;16.70;1.00;;;;;;8335097;28;20241;-70
2023/04/10 09:41:11;;;;;;;13.00;9.60;;;16.50;1.00;;;;;;8322312;28;20189;-71
2023/04/10 09:45:12;;;;;;;12.67;11.37;;;16.60;1.00;;;;;;8335332;28;20217;-70
2023/04/10 09:49:13;;;;;;;11.93;9.97;;;16.60;1.00;;;;;;8321387;28;20256;-72
2023/04/10 09:53:19;;;;;;;16.60;12.77;;;16.40;1.00;;;;;;8323695;28;20193;-71
2023/04/10 09:57:21;;;;;;;13.90;10.27;;;16.30;1.00;;;;;;8322587;28;20221;-72
2023/04/10 10:01:33;;;;;;;11.67;9.10;;;16.40;1.00;;;;;;8330808;28;20269;-70
2023/04/10 10:05:47;;;;;;;11.43;9.33;;;16.80;1.00;;;;;;8326821;28;20206;-71
2023/04/10 10:09:50;;;;;;;8.33;7.53;;;17.10;1.00;;;;;;8328366;28;20212;-69
2023/04/10 10:13:53;;;;;;;10.23;8.67;;;17.40;1.00;;;;;;8325977;28;20226;-69
2023/04/10 10:18:19;;;;;;;9.60;8.20;;;17.50;1.00;;;;;;8329777;28;20253;-69
2023/04/10 10:22:23;;;;;;;9.60;8.60;;;17.70;1.00;;;;;;8324687;28;20272;-70
2023/04/10 10:26:24;;;;;;;9.57;7.90;;;17.90;1.00;;;;;;8327779;28;20186;-68
2023/04/10 10:30:32;;;;;;;9.77;8.57;;;17.70;1.00;;;;;;8324746;28;20210;-69
2023/04/10 10:34:35;;;;;;;11.63;10.10;;;17.70;1.00;;;;;;8322842;28;20186;-70
2023/04/10 10:38:40;;;;;;;13.80;10.83;;;17.70;1.00;;;;;;8328898;28;20259;-70
2023/04/10 10:42:57;;;;;;;13.50;11.90;;;17.80;1.00;;;;;;8325807;28;20198;-69
2023/04/10 10:47:08;;;;;;;15.87;11.33;;;17.70;1.00;;;;;;8339470;28;20182;-72
2023/04/10 10:51:10;;;;;;;14.63;13.00;;;17.70;1.00;;;;;;8329034;28;20409;-69
2023/04/10 10:55:27;;;;;;;14.63;12.60;;;17.60;1.00;;;;;;8321965;28;20184;-69
2023/04/10 10:59:47;;;;;;;17.30;15.47;;;17.50;1.00;;;;;;8338809;28;20324;-69
2023/04/10 11:03:52;;;;;;;16.43;14.60;;;17.30;1.00;;;;;;8336833;28;20182;-70
2023/04/10 11:08:02;;;;;;;15.97;14.17;;;17.40;1.00;;;;;;8321181;28;20259;-71
2023/04/10 11:12:04;;;;;;;17.00;14.27;;;17.50;1.00;;;;;;8329376;28;20206;-69
2023/04/10 11:16:08;;;;;;;18.53;15.33;;;17.50;1.00;;;;;;8331994;28;20186;-70
2023/04/10 11:20:10;;;;;;;18.07;13.83;;;17.30;1.00;;;;;;8328207;28;20182;-69
2023/04/10 11:24:14;;;;;;;15.97;13.93;;;17.30;1.00;;;;;;8327342;28;20182;-69
2023/04/10 11:28:38;;;;;;;15.67;13.30;;;17.10;1.00;;;;;;8330708;28;20190;-69
2023/04/10 11:32:42;;;;;;;14.33;11.60;;;17.20;1.00;;;;;;8344406;28;20182;-70
2023/04/10 11:36:43;;;;;;;15.70;13.93;;;17.20;1.00;;;;;;8323643;28;20324;-68
2023/04/10 11:41:00;;;;;;;17.53;15.67;;;17.10;1.00;;;;;;8318741;28;20244;-69
2023/04/10 11:45:21;;;;;;;15.27;12.40;;;17.20;1.00;;;;;;8336820;28;20217;-69
2023/04/10 11:49:33;;;;;;;14.20;12.00;;;17.00;1.00;;;;;;8324733;28;20240;-69
2023/04/10 11:53:34;;;;;;;17.13;13.03;;;17.00;1.00;;;;;;8316142;28;20182;-68
2023/04/10 11:57:35;;;;;;;13.47;11.73;;;17.10;1.00;;;;;;8324807;28;20213;-69
2023/04/10 12:01:38;;;;;;;15.83;12.00;;;17.10;1.00;;;;;;8328914;28;20196;-69
2023/04/10 12:05:46;;;;;;;15.13;11.63;;;17.10;1.00;;;;;;8319990;28;20210;-69
2023/04/10 12:09:58;;;;;;;12.30;10.07;;;17.00;1.00;;;;;;8320265;28;20221;-69
2023/04/10 12:13:59;;;;;;;11.37;10.17;;;17.00;1.00;;;;;;8325542;28;20186;-71
2023/04/10 12:18:03;;;;;;;13.53;11.13;;;17.10;1.00;;;;;;8340234;28;20198;-71
2023/04/10 12:22:23;;;;;;;12.77;10.40;;;17.10;1.00;;;;;;8337546;28;20205;-69
2023/04/10 12:26:24;;;;;;;11.57;10.20;;;17.00;1.00;;;;;;8332010;28;20312;-69
2023/04/10 12:30:25;;;;;;;13.83;11.20;;;17.10;1.00;;;;;;8323195;28;20213;-70
2023/04/10 12:34:35;;;;;;;12.90;9.60;;;17.10;1.00;;;;;;8328026;28;20186;-70
2023/04/10 12:38:46;;;;;;;11.60;9.63;;;17.00;1.00;;;;;;8338023;28;20194;-70
2023/04/10 12:42:52;;;;;;;12.17;9.60;;;17.00;1.00;;;;;;8321967;28;20194;-71
2023/04/10 12:47:02;;;;;;;13.47;10.17;;;17.00;1.00;;;;;;8343241;28;20315;-70
2023/04/10 12:51:09;;;;;;;10.10;8.33;;;17.00;1.00;;;;;;8330895;28;20240;-69
2023/04/10 12:55:18;;;;;;;11.47;9.53;;;17.00;1.00;;;;;;8320876;28;20248;-70
2023/04/10 12:59:19;;;;;;;16.20;10.93;;;17.10;1.00;;;;;;8325253;28;20222;-73
2023/04/10 13:03:21;;;;;;;10.20;8.37;;;17.10;1.00;;;;;;8317868;28;20299;-70
2023/04/10 13:07:22;;;;;;;9.83;7.47;;;17.10;1.00;;;;;;8308381;28;20192;-73
2023/04/10 13:11:23;;;;;;;9.13;7.43;;;17.10;1.00;;;;;;8316463;28;20209;-73
2023/04/10 13:15:24;;;;;;;10.43;8.57;;;17.20;1.00;;;;;;8312134;28;20214;-68
2023/04/10 13:19:28;;;;;;;9.17;7.93;;;17.10;1.00;;;;;;8327881;28;20190;-66
2023/04/10 13:23:29;;;;;;;14.83;10.13;;;17.00;1.00;;;;;;8325971;28;20190;-67
2023/04/10 13:27:30;;;;;;;9.63;8.20;;;17.00;1.00;;;;;;8322702;28;20186;-69
2023/04/10 13:31:31;;;;;;;10.10;9.03;;;17.00;1.00;;;;;;8320614;28;20213;-71
2023/04/10 13:35:32;;;;;;;11.43;9.67;;;17.00;1.00;;;;;;8325434;28;20197;-70
2023/04/10 13:39:33;;;;;;;12.20;10.83;;;17.00;1.00;;;;;;8330748;28;20297;-70
2023/04/10 13:43:35;;;;;;;9.70;8.53;;;17.00;1.00;;;;;;8320869;28;20324;-71
2023/04/10 13:47:40;;;;;;;12.03;8.97;;;17.10;1.00;;;;;;8314750;28;20301;-71
2023/04/10 13:51:41;;;;;;;10.53;9.43;;;17.10;1.00;;;;;;8321942;28;20292;-70
2023/04/10 13:55:43;;;;;;;12.40;10.33;;;17.00;1.00;;;;;;8318850;28;20217;-72
2023/04/10 13:59:47;;;;;;;12.03;9.83;;;17.00;1.00;;;;;;8322264;28;20214;-70
2023/04/10 14:03:48;;;;;;;12.03;10.57;;;17.00;1.00;;;;;;8320545;28;20247;-70
2023/04/10 14:07:50;;;;;;;15.43;10.40;;;16.90;1.00;;;;;;8318097;28;20281;-71
2023/04/10 14:11:51;;;;;;;11.77;9.90;;;16.80;1.00;;;;;;8331002;28;20271;-73
2023/04/10 14:15:53;;;;;;;12.00;9.80;;;16.80;1.00;;;;;;8334142;28;20292;-73
2023/04/10 14:19:54;;;;;;;14.33;10.30;;;16.80;1.00;;;;;;8333412;28;20217;-71
2023/04/10 14:23:55;;;;;;;14.57;10.10;;;16.90;1.00;;;;;;8324382;28;20194;-70
2023/04/10 14:27:56;;;;;;;14.63;11.33;;;16.90;1.00;;;;;;8322109;28;20197;-71
2023/04/10 14:31:57;;;;;;;15.90;12.23;;;16.90;1.00;;;;;;8321444;28;20224;-70
2023/04/10 14:35:58;;;;;;;13.50;10.87;;;16.90;1.00;;;;;;8327205;28;20186;-69
2023/04/10 14:39:59;;;;;;;16.13;12.73;;;16.80;1.00;;;;;;8323881;28;20213;-70
2023/04/10 14:44:01;;;;;;;16.77;12.50;;;16.70;1.00;;;;;;8323588;28;20197;-71
2023/04/10 14:48:02;;;;;;;15.90;13.20;;;16.70;1.00;;;;;;8323358;28;20213;-70
2023/04/10 14:52:04;;;;;;;16.80;13.50;;;16.70;1.00;;;;;;8331863;28;20223;-70
2023/04/10 14:56:14;;;;;;;14.37;12.47;;;16.80;1.00;;;;;;8329160;28;20212;-72
2023/04/10 15:00:16;;;;;;;15.03;12.30;;;16.90;1.00;;;;;;8324499;28;20209;-71
2023/04/10 15:04:17;;;;;;;14.77;12.57;;;16.90;1.00;;;;;;8331148;28;20191;-71
2023/04/10 15:08:18;;;;;;;16.73;12.73;;;16.80;1.00;;;;;;8328411;28;20190;-70
2023/04/10 15:12:19;;;;;;;17.80;13.80;;;16.60;1.00;;;;;;8327656;28;20206;-70
2023/04/10 15:16:20;;;;;;;16.77;13.30;;;16.50;1.00;;;;;;8326981;28;20186;-70
2023/04/10 15:20:21;;;;;;;14.80;13.00;;;16.50;1.00;;;;;;8331890;28;20258;-70
2023/04/10 15:24:22;;;;;;;18.73;14.60;;;16.40;1.00;;;;;;8324149;28;20232;-72
2023/04/10 15:28:23;;;;;;;17.57;14.20;;;16.30;1.00;;;;;;8316943;28;20285;-70
2023/04/10 15:32:24;;;;;;;17.07;13.63;;;16.30;1.00;;;;;;8292147;28;20244;-71
2023/04/10 15:36:25;;;;;;;17.40;14.90;;;16.10;1.00;;;;;;8335690;28;20197;-72
2023/04/10 15:40:27;;;;;;;16.10;12.40;;;16.00;1.00;;;;;;8343738;28;20228;-69
2023/04/10 15:44:28;;;;;;;15.03;12.43;;;15.90;1.00;;;;;;8340915;28;20240;-69
2023/04/10 15:48:29;;;;;;;15.97;12.97;;;15.80;1.00;;;;;;8339582;28;20191;-71
2023/04/10 15:52:32;;;;;;;17.23;13.67;;;15.70;1.00;;;;;;8341190;28;20182;-70
2023/04/10 15:56:33;;;;;;;14.70;12.13;;;15.60;1.00;;;;;;8337637;28;20201;-70
2023/04/10 16:00:34;;;;;;;14.30;12.53;;;15.60;1.00;;;;;;8334328;28;20197;-71
2023/04/10 16:04:35;;;;;;;17.27;13.13;;;15.60;1.00;;;;;;8338855;28;20182;-71
2023/04/10 16:08:36;;;;;;;14.83;12.50;;;15.50;1.00;;;;;;8337958;28;20248;-71
2023/04/10 16:12:37;;;;;;;13.90;11.60;;;15.40;1.00;;;;;;8333319;28;20216;-70
2023/04/10 16:16:38;;;;;;;14.30;11.93;;;15.30;1.00;;;;;;8338902;28;20197;-71
2023/04/10 16:20:45;;;;;;;14.90;12.33;;;15.30;1.00;;;;;;8337102;28;20189;-70
2023/04/10 16:24:49;;;;;;;13.77;12.10;;;15.10;1.00;;;;;;8315647;28;20189;-70
2023/04/10 16:28:54;;;;;;;16.97;12.40;;;15.00;1.00;;;;;;8297897;28;20214;-71
2023/04/10 16:32:58;;;;;;;15.33;12.67;;;14.80;1.00;;;;;;8294358;28;20186;-70
2023/04/10 16:36:59;;;;;;;16.13;12.63;;;14.60;1.00;;;;;;8297526;28;20183;-71
2023/04/10 16:41:04;;;;;;;14.87;12.10;;;14.40;1.00;;;;;;8289033;28;20248;-70
2023/04/10 16:45:07;;;;;;;17.10;12.50;;;14.20;1.00;;;;;;8307400;28;20261;-70
2023/04/10 16:49:08;;;;;;;16.50;13.57;;;14.00;1.00;;;;;;8284071;28;20226;-73
2023/04/10 16:53:09;;;;;;;14.00;12.13;;;13.90;1.00;;;;;;8296674;28;20180;-72
2023/04/10 16:57:15;;;;;;;14.17;11.60;;;13.80;1.00;;;;;;8297851;28;20277;-70
2023/04/10 17:01:23;;;;;;;14.80;10.67;;;13.70;1.00;;;;;;8296527;28;20191;-71
2023/04/10 17:05:41;;;;;;;13.77;11.53;;;13.60;1.00;;;;;;8289792;28;20183;-71
2023/04/10 17:09:42;;;;;;;15.67;12.33;;;13.40;1.00;;;;;;8297127;28;20202;-71
2023/04/10 17:13:44;;;;;;;15.33;13.20;;;13.20;1.00;;;;;;8298446;28;20216;-69
2023/04/10 17:17:45;;;;;;;16.83;13.37;;;13.00;1.00;;;;;;8294943;28;20189;-71
2023/04/10 17:21:48;;;;;;;16.53;13.03;;;12.70;1.00;;;;;;8295247;28;20202;-72
2023/04/10 17:26:03;;;;;;;16.43;13.30;;;12.60;1.00;;;;;;8303949;28;20201;-71
2023/04/10 17:30:05;;;;;;;17.37;14.07;;;12.40;1.00;;;;;;8303088;28;20218;-71
2023/04/10 17:34:06;;;;;;;25.03;18.30;;;12.10;1.00;;;;;;8294894;28;20205;-71
2023/04/10 17:38:10;;;;;;;40.07;24.90;;;12.00;1.00;;;;;;8297794;28;20304;-71
2023/04/10 17:42:11;;;;;;;50.83;33.53;;;11.80;1.00;;;;;;8302162;28;20191;-71
2023/04/10 17:46:16;;;;;;;38.37;28.00;;;11.60;1.00;;;;;;8290540;28;20256;-71
2023/04/10 17:50:20;;;;;;;30.30;22.27;;;11.50;8.90;;;;;;8297653;28;20215;-72
2023/04/10 17:54:21;;;;;;;20.93;17.50;;;11.30;15.80;;;;;;8293959;28;20197;-73
2023/04/10 17:58:22;;;;;;;17.67;14.03;;;11.10;27.10;;;;;;8293180;28;20219;-74
2023/04/10 18:02:23;;;;;;;17.47;14.13;;;10.90;28.80;;;;;;8298984;28;20190;-74
2023/04/10 18:06:32;;;;;;;18.43;14.87;;;10.70;45.50;;;;;;8293403;28;20190;-73
2023/04/10 18:10:33;;;;;;;16.03;13.03;;;10.50;66.10;;;;;;8298294;28;20218;-73
2023/04/10 18:14:36;;;;;;;15.53;12.03;;;10.30;72.30;;;;;;8267304;28;20202;-73
2023/04/10 18:18:40;;;;;;;14.77;11.80;;;10.00;93.10;;;;;;8304611;28;20264;-73
2023/04/10 18:22:41;;;;;;;14.90;12.07;;;9.80;99.90;;;;;;8297552;28;20201;-73
2023/04/10 18:26:43;;;;;;;14.27;11.73;;;9.60;99.90;;;;;;8297601;28;20218;-73
2023/04/10 18:30:48;;;;;;;16.40;12.47;;;9.40;99.90;;;;;;8290338;28;20217;-73
2023/04/10 18:34:49;;;;;;;16.90;12.70;;;9.30;99.90;;;;;;8305277;28;20201;-63
2023/04/10 18:38:50;;;;;;;16.87;13.13;;;9.20;99.90;;;;;;8295790;28;20182;-64
2023/04/10 18:42:58;;;;;;;16.23;12.87;;;9.00;99.90;;;;;;8287746;28;20249;-63
2023/04/10 18:47:01;;;;;;;19.40;14.03;;;8.90;99.90;;;;;;8286162;28;20206;-64
2023/04/10 18:51:03;;;;;;;20.27;14.10;;;8.80;99.90;;;;;;8284613;28;20219;-64
2023/04/10 18:55:04;;;;;;;20.30;15.10;;;8.60;99.90;;;;;;8290859;28;20553;-64
2023/04/10 18:59:05;;;;;;;21.30;15.70;;;8.50;99.90;;;;;;8294143;28;20249;-64
2023/04/10 19:03:07;;;;;;;25.33;17.43;;;8.40;99.90;;;;;;8298866;28;20222;-63
2023/04/10 19:07:10;;;;;;;25.43;17.50;;;8.40;1.00;;;;;;8294961;28;20194;-64
2023/04/10 19:11:12;;;;;;;24.43;18.33;;;8.30;1.00;;;;;;8293321;28;20211;-64
2023/04/10 19:15:13;;;;;;;23.17;17.40;;;8.20;1.00;;;;;;8296235;28;20190;-64
2023/04/10 19:19:14;;;;;;;24.77;17.40;;;8.20;1.00;;;;;;8296564;28;20187;-63
2023/04/10 19:23:15;;;;;;;26.13;18.40;;;8.10;1.00;;;;;;8300831;28;20305;-65
2023/04/10 19:27:17;;;;;;;26.47;18.57;;;7.90;1.00;;;;;;8297852;28;20190;-64
2023/04/10 19:31:18;;;;;;;22.03;17.57;;;7.80;1.00;;;;;;8291331;28;20222;-64
2023/04/10 19:35:21;;;;;;;26.00;18.37;;;7.70;16.60;;;;;;8300284;28;20186;-65
2023/04/10 19:39:22;;;;;;;28.73;20.70;;;7.60;93.90;;;;;;8293770;28;20195;-64
2023/04/10 19:43:24;;;;;;;30.07;21.70;;;7.50;99.90;;;;;;8296637;28;20201;-65
2023/04/10 19:47:25;;;;;;;31.10;22.53;;;7.40;99.90;;;;;;8293619;28;20191;-64
2023/04/10 19:51:26;;;;;;;31.63;21.37;;;7.40;99.90;;;;;;8291206;28;20218;-65
2023/04/10 19:55:31;;;;;;;32.83;22.80;;;7.30;1.00;;;;;;8293112;28;20185;-65
2023/04/10 19:59:32;;;;;;;33.30;22.70;;;7.30;44.60;;;;;;8288906;28;20199;-65
2023/04/10 20:03:34;;;;;;;31.50;22.73;;;7.20;99.90;;;;;;8291637;28;20218;-65
2023/04/10 20:07:35;;;;;;;36.13;24.50;;;7.20;99.90;;;;;;8294100;28;20210;-64
2023/04/10 20:11:39;;;;;;;34.77;23.73;;;7.10;99.90;;;;;;8291625;28;20218;-64
2023/04/10 20:15:44;;;;;;;31.80;22.40;;;7.10;1.00;;;;;;8271630;28;20190;-64
2023/04/10 20:19:45;;;;;;;32.27;21.77;;;7.00;1.00;;;;;;8289902;28;20187;-64
2023/04/10 20:23:47;;;;;;;37.10;24.10;;;6.90;1.00;;;;;;8294082;28;20202;-65
2023/04/10 20:27:49;;;;;;;32.53;21.60;;;6.90;99.90;;;;;;8288481;28;20305;-65
2023/04/10 20:31:51;;;;;;;31.10;21.67;;;6.90;99.90;;;;;;8289410;28;20368;-64
2023/04/10 20:35:52;;;;;;;32.80;22.43;;;6.80;99.90;;;;;;8296989;28;20214;-65
2023/04/10 20:39:53;;;;;;;32.07;21.80;;;6.70;99.90;;;;;;8294729;28;20287;-66
2023/04/10 20:44:06;;;;;;;30.83;21.37;;;6.70;99.90;;;;;;8256716;28;20237;-66
2023/04/10 20:48:08;;;;;;;30.33;21.93;;;6.60;99.90;;;;;;8284770;28;20210;-66
2023/04/10 20:52:30;;;;;;;34.47;23.17;;;6.50;99.90;;;;;;8257171;28;20218;-64
2023/04/10 20:56:34;;;;;;;31.77;21.80;;;6.50;1.00;;;;;;8225712;28;20344;-64